sensor_id;sensor_type;location;lat;lon;timestamp;pressure;altitude;pressure_sealevel;temperature;humidity
61682;BME280;47577;43.610;25.010;2023-03-04T00:00:27;100625.84;;;5.08;85.62
61682;BME280;47577;43.610;25.010;2023-03-04T00:02:52;100619.94;;;4.75;88.90
61682;BME280;47577;43.610;25.010;2023-03-04T00:05:18;100630.44;;;4.83;87.40
61682;BME280;47577;43.610;25.010;2023-03-04T00:07:43;100624.28;;;4.84;89.60
61682;BME280;47577;43.610;25.010;2023-03-04T00:10:09;100628.66;;;4.87;89.56
61682;BME280;47577;43.610;25.010;2023-03-04T00:12:34;100628.66;;;4.87;86.90
61682;BME280;47577;43.610;25.010;2023-03-04T00:15:00;100629.53;;;4.86;86.06
61682;BME280;47577;43.610;25.010;2023-03-04T00:17:25;100636.63;;;4.74;86.72
61682;BME280;47577;43.610;25.010;2023-03-04T00:19:51;100630.50;;;4.71;87.59
61682;BME280;47577;43.610;25.010;2023-03-04T00:22:16;100635.03;;;4.49;90.90
61682;BME280;47577;43.610;25.010;2023-03-04T00:24:41;100626.22;;;4.53;93.52
61682;BME280;47577;43.610;25.010;2023-03-04T00:27:07;100635.75;;;4.74;92.00
61682;BME280;47577;43.610;25.010;2023-03-04T00:29:32;100630.47;;;4.79;93.43
61682;BME280;47577;43.610;25.010;2023-03-04T00:31:58;100621.75;;;4.70;94.87
61682;BME280;47577;43.610;25.010;2023-03-04T00:34:23;100620.72;;;4.90;94.39
61682;BME280;47577;43.610;25.010;2023-03-04T00:36:48;100622.41;;;5.02;92.67
61682;BME280;47577;43.610;25.010;2023-03-04T00:39:14;100627.63;;;5.08;91.78
61682;BME280;47577;43.610;25.010;2023-03-04T00:41:40;100624.13;;;5.07;90.74
61682;BME280;47577;43.610;25.010;2023-03-04T00:44:06;100623.19;;;5.11;91.89
61682;BME280;47577;43.610;25.010;2023-03-04T00:46:31;100624.88;;;5.23;91.48
61682;BME280;47577;43.610;25.010;2023-03-04T00:48:58;100623.94;;;5.30;90.82
61682;BME280;47577;43.610;25.010;2023-03-04T00:51:23;100612.47;;;5.35;90.50
61682;BME280;47577;43.610;25.010;2023-03-04T00:53:48;100610.75;;;5.29;91.25
61682;BME280;47577;43.610;25.010;2023-03-04T00:56:16;100605.53;;;5.21;92.77
61682;BME280;47577;43.610;25.010;2023-03-04T00:58:42;100601.06;;;5.32;92.02
61682;BME280;47577;43.610;25.010;2023-03-04T01:01:07;100603.69;;;5.34;91.75
61682;BME280;47577;43.610;25.010;2023-03-04T01:03:33;100601.97;;;5.30;92.78
61682;BME280;47577;43.610;25.010;2023-03-04T01:05:58;100596.94;;;5.04;94.39
61682;BME280;47577;43.610;25.010;2023-03-04T01:08:27;100598.63;;;5.08;94.61
61682;BME280;47577;43.610;25.010;2023-03-04T01:10:52;100594.31;;;5.02;95.22
61682;BME280;47577;43.610;25.010;2023-03-04T01:13:18;100593.28;;;5.20;94.62
61682;BME280;47577;43.610;25.010;2023-03-04T01:15:43;100598.41;;;5.34;92.49
61682;BME280;47577;43.610;25.010;2023-03-04T01:18:09;100585.16;;;5.40;91.36
61682;BME280;47577;43.610;25.010;2023-03-04T01:20:34;100589.56;;;5.43;89.71
61682;BME280;47577;43.610;25.010;2023-03-04T01:23:00;100590.44;;;5.42;90.26
61682;BME280;47577;43.610;25.010;2023-03-04T01:25:25;100586.19;;;5.27;91.03
61682;BME280;47577;43.610;25.010;2023-03-04T01:27:51;100595.75;;;5.37;90.81
61682;BME280;47577;43.610;25.010;2023-03-04T01:30:16;100597.44;;;5.46;90.48
61682;BME280;47577;43.610;25.010;2023-03-04T01:32:42;100604.41;;;5.50;89.49
61682;BME280;47577;43.610;25.010;2023-03-04T01:35:07;100598.28;;;5.49;89.20
61682;BME280;47577;43.610;25.010;2023-03-04T01:37:33;100602.66;;;5.49;88.77
61682;BME280;47577;43.610;25.010;2023-03-04T01:39:58;100601.84;;;5.41;88.75
61682;BME280;47577;43.610;25.010;2023-03-04T01:42:24;100598.56;;;5.17;89.83
61682;BME280;47577;43.610;25.010;2023-03-04T01:44:50;100595.25;;;4.89;91.23
61682;BME280;47577;43.610;25.010;2023-03-04T01:47:16;100599.63;;;4.93;91.24
61682;BME280;47577;43.610;25.010;2023-03-04T01:49:42;100591.69;;;4.99;89.60
61682;BME280;47577;43.610;25.010;2023-03-04T01:52:11;100589.91;;;5.03;88.81
61682;BME280;47577;43.610;25.010;2023-03-04T01:54:37;100589.91;;;5.01;87.56
61682;BME280;47577;43.610;25.010;2023-03-04T01:57:05;100575.06;;;4.91;88.05
61682;BME280;47577;43.610;25.010;2023-03-04T01:59:31;100582.16;;;4.83;88.06
61682;BME280;47577;43.610;25.010;2023-03-04T02:01:59;100579.56;;;4.75;88.03
61682;BME280;47577;43.610;25.010;2023-03-04T02:04:26;100582.44;;;4.35;89.24
61682;BME280;47577;43.610;25.010;2023-03-04T02:06:53;100578.94;;;4.37;89.53
61682;BME280;47577;43.610;25.010;2023-03-04T02:09:19;100578.03;;;4.37;89.19
61682;BME280;47577;43.610;25.010;2023-03-04T02:11:45;100576.31;;;4.31;89.56
61682;BME280;47577;43.610;25.010;2023-03-04T02:14:11;100563.19;;;4.24;89.67
61682;BME280;47577;43.610;25.010;2023-03-04T02:16:37;100572.03;;;4.09;90.42
61682;BME280;47577;43.610;25.010;2023-03-04T02:19:04;100570.31;;;3.98;89.82
61682;BME280;47577;43.610;25.010;2023-03-04T02:21:32;100563.28;;;4.05;91.46
61682;BME280;47577;43.610;25.010;2023-03-04T02:26:32;100566.81;;;4.02;90.58
61682;BME280;47577;43.610;25.010;2023-03-04T02:28:59;100565.94;;;4.05;91.64
61682;BME280;47577;43.610;25.010;2023-03-04T02:33:51;100573.84;;;3.96;91.39
61682;BME280;47577;43.610;25.010;2023-03-04T02:36:17;100569.53;;;3.76;91.24
61682;BME280;47577;43.610;25.010;2023-03-04T02:38:43;100570.41;;;3.77;93.07
61682;BME280;47577;43.610;25.010;2023-03-04T02:41:11;100572.09;;;3.92;94.37
61682;BME280;47577;43.610;25.010;2023-03-04T02:43:37;100556.25;;;4.06;92.17
61682;BME280;47577;43.610;25.010;2023-03-04T02:46:03;100567.63;;;4.15;91.34
61682;BME280;47577;43.610;25.010;2023-03-04T02:48:28;100571.13;;;4.10;91.04
61682;BME280;47577;43.610;25.010;2023-03-04T02:50:54;100574.66;;;4.10;91.09
61682;BME280;47577;43.610;25.010;2023-03-04T02:53:19;100573.75;;;4.13;91.57
61682;BME280;47577;43.610;25.010;2023-03-04T02:55:45;100576.38;;;4.19;90.23
61682;BME280;47577;43.610;25.010;2023-03-04T02:58:11;100577.22;;;4.19;89.20
61682;BME280;47577;43.610;25.010;2023-03-04T03:00:36;100579.06;;;4.07;91.21
61682;BME280;47577;43.610;25.010;2023-03-04T03:03:02;100574.69;;;4.06;92.75
61682;BME280;47577;43.610;25.010;2023-03-04T03:05:28;100576.44;;;4.07;92.26
61682;BME280;47577;43.610;25.010;2023-03-04T03:07:55;100579.09;;;3.99;95.87
61682;BME280;47577;43.610;25.010;2023-03-04T03:10:20;100578.97;;;4.24;96.40
61682;BME280;47577;43.610;25.010;2023-03-04T03:12:46;100579.00;;;4.22;95.11
61682;BME280;47577;43.610;25.010;2023-03-04T03:15:11;100579.81;;;4.36;93.82
61682;BME280;47577;43.610;25.010;2023-03-04T03:17:37;100585.03;;;4.43;91.70
61682;BME280;47577;43.610;25.010;2023-03-04T03:20:03;100575.38;;;4.38;92.76
61682;BME280;47577;43.610;25.010;2023-03-04T03:22:28;100575.41;;;4.34;94.78
61682;BME280;47577;43.610;25.010;2023-03-04T03:24:54;100567.50;;;4.34;96.69
61682;BME280;47577;43.610;25.010;2023-03-04T03:27:19;100570.13;;;4.42;97.52
61682;BME280;47577;43.610;25.010;2023-03-04T03:29:44;100570.03;;;4.57;97.20
61682;BME280;47577;43.610;25.010;2023-03-04T03:32:10;100571.66;;;4.78;95.63
61682;BME280;47577;43.610;25.010;2023-03-04T03:34:35;100572.47;;;4.83;93.33
61682;BME280;47577;43.610;25.010;2023-03-04T03:37:01;100572.44;;;4.88;93.39
61682;BME280;47577;43.610;25.010;2023-03-04T03:39:26;100565.34;;;4.99;91.86
61682;BME280;47577;43.610;25.010;2023-03-04T03:41:51;100564.41;;;5.02;90.89
61682;BME280;47577;43.610;25.010;2023-03-04T03:44:17;100567.88;;;5.08;91.03
61682;BME280;47577;43.610;25.010;2023-03-04T03:46:42;100565.22;;;5.08;91.44
61682;BME280;47577;43.610;25.010;2023-03-04T03:49:08;100565.31;;;5.04;92.15
61682;BME280;47577;43.610;25.010;2023-03-04T03:51:33;100561.97;;;4.80;94.64
61682;BME280;47577;43.610;25.010;2023-03-04T03:53:59;100564.56;;;4.83;95.99
61682;BME280;47577;43.610;25.010;2023-03-04T03:56:24;100565.31;;;5.01;95.09
61682;BME280;47577;43.610;25.010;2023-03-04T03:58:50;100557.34;;;5.05;94.74
61682;BME280;47577;43.610;25.010;2023-03-04T04:01:15;100551.28;;;4.95;94.34
61682;BME280;47577;43.610;25.010;2023-03-04T04:03:41;100560.16;;;4.84;95.65
61682;BME280;47577;43.610;25.010;2023-03-04T04:06:06;100565.38;;;4.94;95.52
61682;BME280;47577;43.610;25.010;2023-03-04T04:08:32;100557.34;;;5.07;94.56
61682;BME280;47577;43.610;25.010;2023-03-04T04:10:57;100569.63;;;5.08;nan
61682;BME280;47577;43.610;25.010;2023-03-04T04:13:23;100566.94;;;5.16;94.06
61682;BME280;47577;43.610;25.010;2023-03-04T04:15:52;100558.13;;;5.17;93.71
61682;BME280;47577;43.610;25.010;2023-03-04T04:18:17;100557.28;;;5.15;94.43
61682;BME280;47577;43.610;25.010;2023-03-04T04:20:43;100557.28;;;5.13;94.12
61682;BME280;47577;43.610;25.010;2023-03-04T04:23:08;100559.00;;;5.22;93.48
61682;BME280;47577;43.610;25.010;2023-03-04T04:25:35;100549.41;;;5.10;93.77
61682;BME280;47577;43.610;25.010;2023-03-04T04:28:00;100552.94;;;5.09;94.60
61682;BME280;47577;43.610;25.010;2023-03-04T04:30:26;100550.22;;;5.18;94.13
61682;BME280;47577;43.610;25.010;2023-03-04T04:32:51;100550.16;;;5.24;92.95
61682;BME280;47577;43.610;25.010;2023-03-04T04:35:17;100558.97;;;5.25;93.15
61682;BME280;47577;43.610;25.010;2023-03-04T04:37:42;100548.44;;;5.22;92.65
61682;BME280;47577;43.610;25.010;2023-03-04T04:40:08;100549.31;;;5.21;92.92
61682;BME280;47577;43.610;25.010;2023-03-04T04:42:33;100552.78;;;5.24;92.63
61682;BME280;47577;43.610;25.010;2023-03-04T04:44:59;100553.75;;;5.17;92.15
61682;BME280;47577;43.610;25.010;2023-03-04T04:47:24;100553.84;;;5.03;93.08
61682;BME280;47577;43.610;25.010;2023-03-04T04:49:50;100544.41;;;4.79;94.76
61682;BME280;47577;43.610;25.010;2023-03-04T04:52:15;100555.03;;;4.67;96.04
61682;BME280;47577;43.610;25.010;2023-03-04T04:54:41;100555.03;;;4.68;95.71
61682;BME280;47577;43.610;25.010;2023-03-04T04:57:06;100554.25;;;4.55;96.40
61682;BME280;47577;43.610;25.010;2023-03-04T04:59:32;100548.97;;;4.57;96.44
61682;BME280;47577;43.610;25.010;2023-03-04T05:01:57;100553.19;;;4.78;96.77
61682;BME280;47577;43.610;25.010;2023-03-04T05:04:23;100555.75;;;4.86;96.12
61682;BME280;47577;43.610;25.010;2023-03-04T05:06:48;100559.47;;;4.60;96.58
61682;BME280;47577;43.610;25.010;2023-03-04T05:09:13;100554.16;;;4.63;97.30
61682;BME280;47577;43.610;25.010;2023-03-04T05:11:39;100556.78;;;4.66;96.18
61682;BME280;47577;43.610;25.010;2023-03-04T05:14:04;100559.22;;;4.94;95.28
61682;BME280;47577;43.610;25.010;2023-03-04T05:16:30;100566.16;;;5.04;94.41
61682;BME280;47577;43.610;25.010;2023-03-04T05:18:55;100567.88;;;5.08;93.73
61682;BME280;47577;43.610;25.010;2023-03-04T05:21:21;100567.19;;;4.88;94.59
61682;BME280;47577;43.610;25.010;2023-03-04T05:23:46;100564.63;;;4.75;96.09
61682;BME280;47577;43.610;25.010;2023-03-04T05:26:12;100562.72;;;4.96;95.42
61682;BME280;47577;43.610;25.010;2023-03-04T05:28:38;100561.75;;;5.03;95.63
61682;BME280;47577;43.610;25.010;2023-03-04T05:31:04;100561.94;;;4.85;96.31
61682;BME280;47577;43.610;25.010;2023-03-04T05:33:29;100567.31;;;4.68;97.13
61682;BME280;47577;43.610;25.010;2023-03-04T05:35:55;100563.81;;;4.67;97.61
61682;BME280;47577;43.610;25.010;2023-03-04T05:38:21;100569.88;;;4.79;96.54
61682;BME280;47577;43.610;25.010;2023-03-04T05:40:47;100574.38;;;4.60;96.93
61682;BME280;47577;43.610;25.010;2023-03-04T05:43:13;100577.81;;;4.72;97.47
61682;BME280;47577;43.610;25.010;2023-03-04T05:45:39;100572.50;;;4.82;96.89
61682;BME280;47577;43.610;25.010;2023-03-04T05:48:04;100572.28;;;5.05;96.15
61682;BME280;47577;43.610;25.010;2023-03-04T05:50:30;100577.44;;;5.22;95.06
61682;BME280;47577;43.610;25.010;2023-03-04T05:52:56;100580.97;;;5.19;93.85
61682;BME280;47577;43.610;25.010;2023-03-04T05:55:22;100575.06;;;4.92;95.79
61682;BME280;47577;43.610;25.010;2023-03-04T05:57:47;100577.47;;;5.19;95.88
61682;BME280;47577;43.610;25.010;2023-03-04T06:00:14;100594.09;;;5.25;94.57
61682;BME280;47577;43.610;25.010;2023-03-04T06:02:40;100601.03;;;5.34;94.89
61682;BME280;47577;43.610;25.010;2023-03-04T06:05:06;100597.56;;;5.32;94.00
61682;BME280;47577;43.610;25.010;2023-03-04T06:07:32;100599.16;;;5.48;93.59
61682;BME280;47577;43.610;25.010;2023-03-04T06:09:57;100605.44;;;5.34;94.80
61682;BME280;47577;43.610;25.010;2023-03-04T06:12:23;100604.56;;;5.36;95.07
61682;BME280;47577;43.610;25.010;2023-03-04T06:14:48;100611.50;;;5.46;94.36
61682;BME280;47577;43.610;25.010;2023-03-04T06:17:14;100617.63;;;5.47;94.67
61682;BME280;47577;43.610;25.010;2023-03-04T06:19:39;100620.19;;;5.55;93.91
61682;BME280;47577;43.610;25.010;2023-03-04T06:22:06;100627.16;;;5.60;94.18
61682;BME280;47577;43.610;25.010;2023-03-04T06:24:31;100623.59;;;5.67;93.62
61682;BME280;47577;43.610;25.010;2023-03-04T06:26:57;100623.50;;;5.78;93.22
61682;BME280;47577;43.610;25.010;2023-03-04T06:29:22;100619.78;;;5.95;92.92
61682;BME280;47577;43.610;25.010;2023-03-04T06:31:48;100612.78;;;5.92;92.44
61682;BME280;47577;43.610;25.010;2023-03-04T06:34:13;100613.63;;;5.94;92.69
61682;BME280;47577;43.610;25.010;2023-03-04T06:36:39;100612.78;;;5.89;92.75
61682;BME280;47577;43.610;25.010;2023-03-04T06:39:04;100617.22;;;5.89;92.98
61682;BME280;47577;43.610;25.010;2023-03-04T06:41:30;100618.91;;;5.94;93.35
61682;BME280;47577;43.610;25.010;2023-03-04T06:43:56;100614.41;;;6.04;93.20
61682;BME280;47577;43.610;25.010;2023-03-04T06:46:21;100618.81;;;6.07;92.61
61682;BME280;47577;43.610;25.010;2023-03-04T06:48:47;100625.66;;;6.21;91.17
61682;BME280;47577;43.610;25.010;2023-03-04T06:51:12;100627.38;;;6.26;90.75
61682;BME280;47577;43.610;25.010;2023-03-04T06:53:38;100631.75;;;6.27;91.12
61682;BME280;47577;43.610;25.010;2023-03-04T06:56:04;100622.94;;;6.29;90.30
61682;BME280;47577;43.610;25.010;2023-03-04T06:58:30;100627.22;;;6.38;90.07
61682;BME280;47577;43.610;25.010;2023-03-04T07:00:56;100620.94;;;6.47;88.64
61682;BME280;47577;43.610;25.010;2023-03-04T07:03:21;100621.75;;;6.52;88.47
61682;BME280;47577;43.610;25.010;2023-03-04T07:05:47;100625.25;;;6.52;88.46
61682;BME280;47577;43.610;25.010;2023-03-04T07:08:13;100618.13;;;6.57;88.12
61682;BME280;47577;43.610;25.010;2023-03-04T07:10:38;100624.16;;;6.69;88.22
61682;BME280;47577;43.610;25.010;2023-03-04T07:13:04;100625.09;;;6.66;88.39
61682;BME280;47577;43.610;25.010;2023-03-04T07:15:29;100625.00;;;6.72;88.89
61682;BME280;47577;43.610;25.010;2023-03-04T07:17:58;100622.16;;;6.85;88.70
61682;BME280;47577;43.610;25.010;2023-03-04T07:20:23;100618.75;;;6.76;87.67
61682;BME280;47577;43.610;25.010;2023-03-04T07:22:48;100617.13;;;6.68;87.97
61682;BME280;47577;43.610;25.010;2023-03-04T07:25:14;100617.13;;;6.68;88.15
61682;BME280;47577;43.610;25.010;2023-03-04T07:27:40;100616.13;;;6.75;88.36
61682;BME280;47577;43.610;25.010;2023-03-04T07:30:06;100616.13;;;6.75;88.02
61682;BME280;47577;43.610;25.010;2023-03-04T07:32:32;100611.84;;;6.69;85.92
61682;BME280;47577;43.610;25.010;2023-03-04T07:35:01;100616.13;;;6.76;85.67
61682;BME280;47577;43.610;25.010;2023-03-04T07:37:27;100612.81;;;6.61;87.44
61682;BME280;47577;43.610;25.010;2023-03-04T07:39:52;100610.81;;;6.78;87.53
61682;BME280;47577;43.610;25.010;2023-03-04T07:42:18;100615.03;;;6.90;87.49
61682;BME280;47577;43.610;25.010;2023-03-04T07:44:43;100606.91;;;7.02;86.23
61682;BME280;47577;43.610;25.010;2023-03-04T07:47:09;100603.00;;;7.26;85.75
61682;BME280;47577;43.610;25.010;2023-03-04T07:49:34;100600.34;;;7.28;84.46
61682;BME280;47577;43.610;25.010;2023-03-04T07:52:03;100597.63;;;7.32;83.93
61682;BME280;47577;43.610;25.010;2023-03-04T07:54:29;100600.81;;;7.52;84.51
61682;BME280;47577;43.610;25.010;2023-03-04T07:56:54;100596.41;;;7.50;82.63
61682;BME280;47577;43.610;25.010;2023-03-04T07:59:20;100600.00;;;7.46;84.02
61682;BME280;47577;43.610;25.010;2023-03-04T08:01:48;100597.31;;;7.49;83.78
61682;BME280;47577;43.610;25.010;2023-03-04T08:04:14;100593.03;;;7.42;82.03
61682;BME280;47577;43.610;25.010;2023-03-04T08:06:40;100600.75;;;7.53;83.00
61682;BME280;47577;43.610;25.010;2023-03-04T08:09:07;100594.88;;;7.39;81.27
61682;BME280;47577;43.610;25.010;2023-03-04T08:11:35;100594.47;;;7.60;81.25
61682;BME280;47577;43.610;25.010;2023-03-04T08:14:01;100591.78;;;7.62;82.22
61682;BME280;47577;43.610;25.010;2023-03-04T08:16:27;100589.41;;;7.46;84.05
61682;BME280;47577;43.610;25.010;2023-03-04T08:18:53;100582.22;;;7.53;82.37
61682;BME280;47577;43.610;25.010;2023-03-04T08:21:21;100586.66;;;7.53;81.74
61682;BME280;47577;43.610;25.010;2023-03-04T08:23:47;100587.53;;;7.53;83.24
61682;BME280;47577;43.610;25.010;2023-03-04T08:26:14;100580.03;;;7.77;83.30
61682;BME280;47577;43.610;25.010;2023-03-04T08:28:41;100577.16;;;7.89;81.19
61682;BME280;47577;43.610;25.010;2023-03-04T08:31:06;100579.06;;;7.82;83.69
61682;BME280;47577;43.610;25.010;2023-03-04T08:33:32;100574.00;;;8.14;81.01
61682;BME280;47577;43.610;25.010;2023-03-04T08:35:58;100567.66;;;8.21;80.21
61682;BME280;47577;43.610;25.010;2023-03-04T08:38:23;100573.09;;;8.16;78.57
61682;BME280;47577;43.610;25.010;2023-03-04T08:40:53;100568.47;;;8.26;79.18
61682;BME280;47577;43.610;25.010;2023-03-04T08:43:18;100567.44;;;8.32;80.64
61682;BME280;47577;43.610;25.010;2023-03-04T08:45:44;100565.66;;;8.32;79.79
61682;BME280;47577;43.610;25.010;2023-03-04T08:48:10;100562.69;;;8.49;79.48
61682;BME280;47577;43.610;25.010;2023-03-04T08:50:35;100553.63;;;8.58;79.15
61682;BME280;47577;43.610;25.010;2023-03-04T08:53:01;100553.56;;;8.61;78.04
61682;BME280;47577;43.610;25.010;2023-03-04T08:55:26;100547.84;;;8.80;76.04
61682;BME280;47577;43.610;25.010;2023-03-04T08:57:51;100556.69;;;8.78;78.80
61682;BME280;47577;43.610;25.010;2023-03-04T09:00:17;100552.81;;;8.92;75.52
61682;BME280;47577;43.610;25.010;2023-03-04T09:02:43;100546.25;;;9.07;77.11
61682;BME280;47577;43.610;25.010;2023-03-04T09:05:08;100552.28;;;9.13;76.01
61682;BME280;47577;43.610;25.010;2023-03-04T09:07:34;100537.88;;;9.24;74.74
61682;BME280;47577;43.610;25.010;2023-03-04T09:09:59;100542.34;;;9.23;75.32
61682;BME280;47577;43.610;25.010;2023-03-04T09:12:25;100535.19;;;9.25;76.45
61682;BME280;47577;43.610;25.010;2023-03-04T09:14:50;100542.84;;;9.36;73.61
61682;BME280;47577;43.610;25.010;2023-03-04T09:17:15;100533.13;;;9.37;72.85
61682;BME280;47577;43.610;25.010;2023-03-04T09:19:41;100529.19;;;9.19;74.28
61682;BME280;47577;43.610;25.010;2023-03-04T09:22:06;100540.69;;;9.18;73.42
61682;BME280;47577;43.610;25.010;2023-03-04T09:24:32;100534.50;;;9.51;73.95
61682;BME280;47577;43.610;25.010;2023-03-04T09:26:57;100524.22;;;9.72;72.44
61682;BME280;47577;43.610;25.010;2023-03-04T09:29:22;100524.97;;;9.76;71.67
61682;BME280;47577;43.610;25.010;2023-03-04T09:31:49;100520.66;;;10.03;73.83
61682;BME280;47577;43.610;25.010;2023-03-04T09:34:14;100523.38;;;10.30;75.15
61682;BME280;47577;43.610;25.010;2023-03-04T09:36:39;100511.81;;;10.60;72.18
61682;BME280;47577;43.610;25.010;2023-03-04T09:39:05;100526.03;;;10.30;71.24
61682;BME280;47577;43.610;25.010;2023-03-04T09:41:43;100515.41;;;10.59;73.25
61682;BME280;47577;43.610;25.010;2023-03-04T09:44:15;100504.94;;;10.82;69.18
61682;BME280;47577;43.610;25.010;2023-03-04T09:46:45;100507.28;;;10.91;72.45
61682;BME280;47577;43.610;25.010;2023-03-04T09:49:11;100502.22;;;11.10;70.14
61682;BME280;47577;43.610;25.010;2023-03-04T09:51:43;100494.59;;;11.26;66.95
61682;BME280;47577;43.610;25.010;2023-03-04T09:57:03;100490.34;;;11.20;70.66
61682;BME280;47577;43.610;25.010;2023-03-04T09:59:38;100494.63;;;11.24;67.93
61682;BME280;47577;43.610;25.010;2023-03-04T10:02:17;100486.97;;;11.15;68.05
61682;BME280;47577;43.610;25.010;2023-03-04T10:04:48;100487.50;;;10.73;69.44
61682;BME280;47577;43.610;25.010;2023-03-04T10:07:20;100483.56;;;11.11;69.12
61682;BME280;47577;43.610;25.010;2023-03-04T10:09:52;100475.28;;;11.44;67.75
61682;BME280;47577;43.610;25.010;2023-03-04T10:12:21;100475.31;;;11.68;67.35
61682;BME280;47577;43.610;25.010;2023-03-04T10:14:50;100471.09;;;11.86;65.71
61682;BME280;47577;43.610;25.010;2023-03-04T10:17:28;100470.94;;;11.91;65.04
61682;BME280;47577;43.610;25.010;2023-03-04T10:22:43;100473.59;;;11.42;66.52
61682;BME280;47577;43.610;25.010;2023-03-04T10:25:22;100460.66;;;11.56;64.54
61682;BME280;47577;43.610;25.010;2023-03-04T10:27:51;100459.13;;;11.73;65.56
61682;BME280;47577;43.610;25.010;2023-03-04T10:33:01;100447.34;;;11.80;65.63
61682;BME280;47577;43.610;25.010;2023-03-04T10:35:30;100445.44;;;11.83;62.94
61682;BME280;47577;43.610;25.010;2023-03-04T10:37:57;100444.22;;;11.68;63.03
61682;BME280;47577;43.610;25.010;2023-03-04T10:40:26;100435.78;;;11.81;66.82
61682;BME280;47577;43.610;25.010;2023-03-04T10:42:51;100429.13;;;11.93;64.89
61682;BME280;47577;43.610;25.010;2023-03-04T10:45:19;100418.97;;;12.02;64.61
61682;BME280;47577;43.610;25.010;2023-03-04T10:47:51;100418.78;;;12.07;63.62
61682;BME280;47577;43.610;25.010;2023-03-04T10:50:20;100424.31;;;12.02;63.17
61682;BME280;47577;43.610;25.010;2023-03-04T10:52:46;100415.38;;;12.03;64.20
61682;BME280;47577;43.610;25.010;2023-03-04T10:55:15;100409.81;;;11.62;62.74
61682;BME280;47577;43.610;25.010;2023-03-04T10:57:42;100404.19;;;11.94;63.91
61682;BME280;47577;43.610;25.010;2023-03-04T11:02:53;100388.78;;;12.24;62.82
61682;BME280;47577;43.610;25.010;2023-03-04T11:05:38;100370.16;;;12.44;64.54
61682;BME280;47577;43.610;25.010;2023-03-04T11:08:04;100366.59;;;12.46;63.49
61682;BME280;47577;43.610;25.010;2023-03-04T11:10:30;100364.03;;;12.63;65.49
61682;BME280;47577;43.610;25.010;2023-03-04T11:15:43;100368.25;;;12.69;60.09
61682;BME280;47577;43.610;25.010;2023-03-04T11:18:12;100362.03;;;12.68;63.00
61682;BME280;47577;43.610;25.010;2023-03-04T11:20:38;100357.94;;;12.82;62.19
61682;BME280;47577;43.610;25.010;2023-03-04T11:23:10;100354.56;;;12.97;61.21
61682;BME280;47577;43.610;25.010;2023-03-04T11:25:39;100360.16;;;13.11;61.68
61682;BME280;47577;43.610;25.010;2023-03-04T11:28:23;100351.28;;;13.11;61.93
61682;BME280;47577;43.610;25.010;2023-03-04T11:30:52;100350.44;;;12.49;58.85
61682;BME280;47577;43.610;25.010;2023-03-04T11:33:21;100350.50;;;12.47;59.01
61682;BME280;47577;43.610;25.010;2023-03-04T11:35:52;100346.56;;;12.35;60.50
61682;BME280;47577;43.610;25.010;2023-03-04T11:38:19;100358.31;;;12.09;59.82
61682;BME280;47577;43.610;25.010;2023-03-04T11:40:48;100347.78;;;11.82;62.47
61682;BME280;47577;43.610;25.010;2023-03-04T11:43:16;100340.31;;;12.14;59.92
61682;BME280;47577;43.610;25.010;2023-03-04T11:59:09;100322.13;;;13.06;59.78
61682;BME280;47577;43.610;25.010;2023-03-04T12:07:08;100319.66;;;13.02;58.98
61682;BME280;47577;43.610;25.010;2023-03-04T12:15:12;100303.41;;;13.27;56.66
61682;BME280;47577;43.610;25.010;2023-03-04T12:25:23;100309.19;;;12.15;58.49
61682;BME280;47577;43.610;25.010;2023-03-04T12:28:10;100302.78;;;11.98;60.47
61682;BME280;47577;43.610;25.010;2023-03-04T12:35:45;100294.22;;;12.74;59.39
61682;BME280;47577;43.610;25.010;2023-03-04T12:38:28;100297.75;;;12.74;58.85
61682;BME280;47577;43.610;25.010;2023-03-04T12:41:03;100285.09;;;12.59;59.46
61682;BME280;47577;43.610;25.010;2023-03-04T12:43:38;100280.88;;;12.94;60.09
61682;BME280;47577;43.610;25.010;2023-03-04T12:56:41;100265.56;;;12.58;58.69
61682;BME280;47577;43.610;25.010;2023-03-04T12:59:13;100261.16;;;12.37;57.49
61682;BME280;47577;43.610;25.010;2023-03-04T13:01:40;100258.50;;;12.57;58.19
61682;BME280;47577;43.610;25.010;2023-03-04T13:06:41;100251.00;;;13.24;55.46
61682;BME280;47577;43.610;25.010;2023-03-04T13:09:14;100246.81;;;12.99;56.08
61682;BME280;47577;43.610;25.010;2023-03-04T13:11:43;100240.59;;;12.80;57.46
61682;BME280;47577;43.610;25.010;2023-03-04T13:16:43;100228.78;;;12.86;57.19
61682;BME280;47577;43.610;25.010;2023-03-04T13:21:57;100220.16;;;12.60;57.26
61682;BME280;47577;43.610;25.010;2023-03-04T13:29:50;100219.53;;;12.34;58.73
61682;BME280;47577;43.610;25.010;2023-03-04T13:32:33;100214.09;;;12.56;58.90
61682;BME280;47577;43.610;25.010;2023-03-04T13:34:59;100205.84;;;13.01;56.92
61682;BME280;47577;43.610;25.010;2023-03-04T13:37:32;100213.94;;;12.99;57.02
61682;BME280;47577;43.610;25.010;2023-03-04T13:42:43;100193.72;;;13.31;57.81
61682;BME280;47577;43.610;25.010;2023-03-04T13:47:52;100186.50;;;13.70;54.82
61682;BME280;47577;43.610;25.010;2023-03-04T13:50:40;100187.47;;;14.04;53.51
61682;BME280;47577;43.610;25.010;2023-03-04T13:56:30;100187.94;;;13.95;51.76
61682;BME280;47577;43.610;25.010;2023-03-04T13:58:37;100181.63;;;13.78;52.37
61682;BME280;47577;43.610;25.010;2023-03-04T14:01:03;100171.03;;;13.94;52.29
61682;BME280;47577;43.610;25.010;2023-03-04T14:03:29;100171.47;;;13.50;52.64
61682;BME280;47577;43.610;25.010;2023-03-04T14:06:14;100165.53;;;13.80;51.10
61682;BME280;47577;43.610;25.010;2023-03-04T14:08:40;100162.22;;;14.10;54.44
61682;BME280;47577;43.610;25.010;2023-03-04T14:11:10;100155.28;;;14.23;51.52
61682;BME280;47577;43.610;25.010;2023-03-04T14:13:37;100152.41;;;13.93;51.84